Time;durP1;ratioP1;P1;durP2;ratioP2;P2;SDS_P1;SDS_P2;PMS_P1;PMS_P2;Temp;Humidity;BMP_temperature;BMP_pressure;BME280_temperature;BME280_humidity;BME280_pressure;Samples;Min_cycle;Max_cycle;Signal;HPM_P1;HPM_P2
2024/01/15 00:03:56;;;;;;;1.77;0.93;;;;;;;17.05;52.42;100058.66;10414562;28;20021;-50
2024/01/15 00:08:58;;;;;;;2.07;1.13;;;;;;;17.03;53.10;100064.31;10414538;28;20345;-48
2024/01/15 00:13:58;;;;;;;2.35;1.17;;;;;;;17.02;53.25;100068.09;10455088;28;20674;-49
2024/01/15 00:18:58;;;;;;;2.20;1.10;;;;;;;17.02;53.20;100057.38;10454959;28;20059;-48
2024/01/15 00:23:59;;;;;;;1.50;1.00;;;;;;;17.02;53.04;100054.69;10454656;28;20021;-50
2024/01/15 00:28:59;;;;;;;3.23;1.67;;;;;;;17.00;51.87;100051.53;10435934;28;20108;-48
2024/01/15 00:33:59;;;;;;;2.83;1.25;;;;;;;17.03;51.71;100050.13;10422692;28;20291;-51
2024/01/15 00:39:00;;;;;;;2.90;1.08;;;;;;;17.03;53.27;100042.88;10412830;28;20083;-50
2024/01/15 00:44:00;;;;;;;2.15;1.00;;;;;;;17.03;53.20;100034.84;10413067;28;20025;-47
2024/01/15 00:49:00;;;;;;;2.50;1.40;;;;;;;17.02;52.13;100019.88;10412320;28;20029;-51
2024/01/15 00:54:01;;;;;;;1.53;1.17;;;;;;;17.03;52.46;100023.34;10412629;28;20295;-48
2024/01/15 00:59:01;;;;;;;2.27;0.97;;;;;;;17.03;52.77;100009.94;10412439;28;20280;-50
2024/01/15 01:04:01;;;;;;;2.63;0.90;;;;;;;17.01;52.11;100002.22;10411961;28;20288;-49
2024/01/15 01:09:02;;;;;;;1.83;1.05;;;;;;;17.02;52.96;99997.66;10413114;28;20448;-49
2024/01/15 01:14:03;;;;;;;2.50;1.03;;;;;;;17.02;52.25;99998.44;10452832;28;20033;-49
2024/01/15 01:19:03;;;;;;;1.38;0.68;;;;;;;17.05;51.30;100002.41;10452617;28;20299;-47
2024/01/15 01:24:03;;;;;;;1.33;0.70;;;;;;;17.06;51.49;99995.97;10434347;28;20040;-48
2024/01/15 01:29:04;;;;;;;1.92;0.98;;;;;;;17.08;52.37;99994.56;10410767;28;20275;-49
2024/01/15 01:34:04;;;;;;;1.33;0.82;;;;;;;17.05;52.85;100002.41;10419730;28;20034;-50
2024/01/15 01:39:05;;;;;;;1.70;0.90;;;;;;;17.03;52.65;99994.66;10408902;28;20037;-48
2024/01/15 01:44:06;;;;;;;2.03;0.82;;;;;;;17.06;51.29;100001.34;10410667;28;20311;-48
2024/01/15 01:49:07;;;;;;;1.75;0.77;;;;;;;17.03;51.70;99994.66;10409950;28;20104;-47
2024/01/15 01:54:09;;;;;;;1.85;0.60;;;;;;;17.04;51.42;99996.25;10410315;28;20027;-50
2024/01/15 01:59:11;;;;;;;3.20;0.90;;;;;;;17.02;51.47;100005.69;10409758;28;20108;-51
2024/01/15 02:04:11;;;;;;;1.20;0.60;;;;;;;17.01;51.70;99996.06;10409790;28;20599;-49
2024/01/15 02:09:14;;;;;;;2.28;0.85;;;;;;;17.01;51.02;99994.19;10411329;28;20049;-47
2024/01/15 02:14:15;;;;;;;1.10;0.60;;;;;;;17.03;52.61;99988.53;10432833;28;20043;-52
2024/01/15 02:19:19;;;;;;;2.08;0.60;;;;;;;17.00;52.03;99992.59;10409048;28;20026;-48
2024/01/15 02:24:19;;;;;;;1.63;0.55;;;;;;;17.01;52.38;99991.50;10409075;28;20021;-48
2024/01/15 02:29:20;;;;;;;1.63;0.75;;;;;;;16.99;51.06;99991.03;10408591;28;20041;-48
2024/01/15 02:34:20;;;;;;;2.03;0.60;;;;;;;17.02;50.74;99987.72;10426313;28;20082;-49
2024/01/15 02:39:20;;;;;;;3.00;0.83;;;;;;;17.02;51.13;99995.78;10411695;28;20283;-47
2024/01/15 02:44:21;;;;;;;1.03;0.70;;;;;;;17.02;51.57;100005.69;10408934;28;20752;-47
2024/01/15 02:49:21;;;;;;;1.87;0.60;;;;;;;17.04;51.20;100006.97;10408501;28;20279;-47
2024/01/15 02:54:21;;;;;;;0.97;0.50;;;;;;;17.02;51.10;100006.47;10408881;28;20294;-51
2024/01/15 02:59:22;;;;;;;1.17;0.40;;;;;;;17.04;50.74;99995.47;10408068;28;20291;-49
2024/01/15 03:04:22;;;;;;;2.30;0.60;;;;;;;17.04;50.61;100003.50;10408447;28;20302;-51
2024/01/15 03:09:22;;;;;;;1.53;0.60;;;;;;;17.04;51.96;99998.13;10412221;28;20033;-49
2024/01/15 03:14:25;;;;;;;0.98;0.52;;;;;;;17.05;50.51;99991.69;10449546;28;20797;-47
2024/01/15 03:19:25;;;;;;;2.17;0.75;;;;;;;17.05;50.89;99984.47;10450482;28;20107;-49
2024/01/15 03:24:26;;;;;;;1.80;0.63;;;;;;;17.06;50.57;99993.31;10457284;28;20033;-48
2024/01/15 03:29:26;;;;;;;1.15;0.60;;;;;;;17.04;50.24;99985.53;10456768;28;20758;-50
2024/01/15 03:34:27;;;;;;;0.75;0.40;;;;;;;17.04;51.96;99980.19;10424564;28;20044;-47
2024/01/15 03:39:27;;;;;;;2.88;0.77;;;;;;;17.05;51.99;99970.25;10415203;28;20087;-48
2024/01/15 03:44:27;;;;;;;0.83;0.50;;;;;;;17.03;51.30;99975.91;10415265;28;20033;-51
2024/01/15 03:49:27;;;;;;;1.40;0.50;;;;;;;17.03;51.18;99977.81;10414539;28;20339;-49
2024/01/15 03:54:28;;;;;;;0.90;0.33;;;;;;;17.03;50.54;99959.84;10414869;28;20284;-51
2024/01/15 03:59:28;;;;;;;1.23;0.50;;;;;;;17.05;51.37;99964.91;10414212;28;20322;-49
2024/01/15 04:04:28;;;;;;;1.20;0.53;;;;;;;17.03;51.28;99967.88;10414566;28;20283;-51
2024/01/15 04:09:29;;;;;;;1.03;0.50;;;;;;;17.03;51.71;99978.59;10418844;28;20774;-48
2024/01/15 04:14:29;;;;;;;1.80;0.40;;;;;;;17.01;50.62;99969.28;10455413;28;20290;-48
2024/01/15 04:19:29;;;;;;;1.45;0.82;;;;;;;17.02;51.37;99970.88;10454931;28;20032;-48
2024/01/15 04:24:31;;;;;;;0.80;0.50;;;;;;;16.99;50.74;99964.25;10455006;28;20025;-48
2024/01/15 04:29:32;;;;;;;0.95;0.50;;;;;;;16.99;52.23;99955.41;10442801;28;20271;-46
2024/01/15 04:34:32;;;;;;;2.83;0.77;;;;;;;17.01;52.12;99945.97;10445427;28;20025;-47
2024/01/15 04:39:32;;;;;;;3.88;1.08;;;;;;;17.00;51.11;99947.06;10423241;28;20325;-49
2024/01/15 04:44:33;;;;;;;1.95;1.20;;;;;;;17.05;52.59;99935.44;10425882;28;20075;-50
2024/01/15 04:49:33;;;;;;;3.55;0.90;;;;;;;17.07;51.10;99923.34;10425482;28;20056;-49
2024/01/15 04:54:33;;;;;;;1.83;1.27;;;;;;;17.07;52.06;99927.91;10426276;28;20032;-50
2024/01/15 04:59:34;;;;;;;1.77;0.80;;;;;;;17.09;52.45;99923.84;10427700;28;20268;-48
2024/01/15 05:04:34;;;;;;;1.25;0.80;;;;;;;17.07;52.75;99917.22;10425336;28;20889;-47
2024/01/15 05:09:34;;;;;;;2.60;1.03;;;;;;;17.06;52.60;99911.06;10412304;28;20045;-51
2024/01/15 05:14:35;;;;;;;2.60;0.60;;;;;;;17.03;51.67;99903.63;10411424;28;20296;-49
2024/01/15 05:19:35;;;;;;;2.40;1.43;;;;;;;17.00;52.53;99911.47;10411185;28;20477;-52
2024/01/15 05:24:35;;;;;;;1.50;0.80;;;;;;;17.01;52.82;99896.97;10411218;28;20276;-48
2024/01/15 05:29:36;;;;;;;4.43;0.93;;;;;;;17.00;51.72;99898.09;10413632;28;20032;-50
2024/01/15 05:34:36;;;;;;;1.30;0.80;;;;;;;17.02;51.63;99906.59;10416352;28;20611;-49
2024/01/15 05:39:36;;;;;;;1.93;1.03;;;;;;;17.02;50.84;99902.03;10410270;28;20282;-48
2024/01/15 05:44:37;;;;;;;2.22;0.68;;;;;;;17.00;51.69;99906.91;10418877;28;20653;-48
2024/01/15 05:49:37;;;;;;;4.90;1.63;;;;;;;16.98;51.48;99902.97;10409948;28;20051;-49
2024/01/15 05:54:37;;;;;;;2.92;0.70;;;;;;;16.99;51.46;99902.66;10410115;28;20337;-47
2024/01/15 05:59:38;;;;;;;1.57;0.60;;;;;;;17.00;52.26;99898.09;10409773;28;20108;-48
2024/01/15 06:04:38;;;;;;;1.43;1.00;;;;;;;16.97;51.56;99904.84;10409800;28;20613;-48
2024/01/15 06:09:38;;;;;;;2.23;0.80;;;;;;;17.00;50.80;99914.94;10415621;28;20287;-50
2024/01/15 06:14:39;;;;;;;5.18;0.80;;;;;;;17.03;51.91;99910.84;10451029;28;20651;-49
2024/01/15 06:19:39;;;;;;;4.57;0.77;;;;;;;17.05;52.44;99901.44;10450186;28;20033;-48
2024/01/15 06:24:41;;;;;;;4.28;0.80;;;;;;;17.08;52.99;99908.06;10450471;28;20295;-49
2024/01/15 06:29:45;;;;;;;11.48;1.48;;;;;;;17.07;52.94;99909.97;10452039;28;20025;-50
2024/01/15 06:34:45;;;;;;;16.13;1.60;;;;;;;17.09;53.65;99899.72;10421677;28;20033;-47
2024/01/15 06:39:46;;;;;;;6.18;1.45;;;;;;;17.08;52.80;99910.75;10411622;28;20021;-53
2024/01/15 06:44:46;;;;;;;13.47;1.63;;;;;;;17.06;52.90;99926.34;10408551;28;20030;-49
2024/01/15 06:49:46;;;;;;;5.53;1.40;;;;;;;16.99;53.93;99902.66;10408589;28;20975;-49
2024/01/15 06:54:47;;;;;;;15.37;1.93;;;;;;;17.02;54.48;99898.56;10423434;28;20286;-49
2024/01/15 06:59:48;;;;;;;19.40;1.40;;;;;;;17.01;53.84;99896.97;10417024;28;20307;-47
2024/01/15 07:04:48;;;;;;;12.05;1.95;;;;;;;17.05;53.81;99904.13;10434007;28;20109;-55
2024/01/15 07:09:48;;;;;;;13.80;1.80;;;;;;;17.03;53.33;99898.25;10433947;28;20118;-53
2024/01/15 07:14:49;;;;;;;11.55;2.00;;;;;;;17.00;52.39;99896.19;10447382;28;20324;-52
2024/01/15 07:19:49;;;;;;;8.32;1.40;;;;;;;17.04;53.01;99894.47;10446850;28;20026;-53
2024/01/15 07:24:49;;;;;;;21.20;2.33;;;;;;;17.04;51.82;99877.63;10415093;28;20453;-49
2024/01/15 07:29:50;;;;;;;7.83;1.57;;;;;;;16.99;51.83;99889.25;10422199;28;20294;-51
2024/01/15 07:34:50;;;;;;;11.87;1.20;;;;;;;16.98;52.06;99887.69;10416437;28;20334;-52
2024/01/15 07:39:51;;;;;;;9.27;1.40;;;;;;;16.94;52.29;99884.81;10415140;28;20954;-52
2024/01/15 07:44:51;;;;;;;8.23;1.52;;;;;;;16.96;51.09;99895.22;10414652;28;20375;-51
2024/01/15 07:49:52;;;;;;;7.60;1.83;;;;;;;16.93;51.95;99931.44;10414910;28;20088;-47
2024/01/15 07:54:52;;;;;;;9.23;1.08;;;;;;;16.92;51.58;99899.59;10414700;28;20447;-48
2024/01/15 07:59:53;;;;;;;5.47;1.17;;;;;;;16.98;52.62;99913.66;10414514;28;20010;-47
2024/01/15 08:04:53;;;;;;;4.03;1.07;;;;;;;16.98;51.17;99908.31;10410497;28;20036;-51
2024/01/15 08:09:53;;;;;;;5.70;1.20;;;;;;;16.95;51.81;99901.69;10421413;28;20302;-50
2024/01/15 08:14:54;;;;;;;7.40;1.45;;;;;;;16.94;51.53;99908.13;10444772;28;20306;-49
2024/01/15 08:19:54;;;;;;;11.95;1.38;;;;;;;16.93;51.67;99920.72;10413882;28;20272;-46
2024/01/15 08:24:55;;;;;;;9.63;1.58;;;;;;;16.95;52.86;99905.16;10423569;28;20158;-51
2024/01/15 08:29:55;;;;;;;7.90;1.05;;;;;;;17.00;52.53;99911.47;10429851;28;20040;-51
2024/01/15 08:34:56;;;;;;;8.40;0.90;;;;;;;17.00;53.24;99901.56;10425287;28;20036;-49
2024/01/15 08:39:56;;;;;;;5.20;1.10;;;;;;;16.97;52.37;99896.81;10428082;28;20021;-48
2024/01/15 08:44:56;;;;;;;3.07;0.93;;;;;;;16.98;51.88;99900.28;10427159;28;20276;-49
2024/01/15 08:49:56;;;;;;;6.37;1.53;;;;;;;16.97;52.59;99910.19;10427457;28;20300;-52
2024/01/15 08:54:57;;;;;;;5.03;1.00;;;;;;;16.95;52.00;99915.88;10413896;28;20313;-51
2024/01/15 08:59:58;;;;;;;7.95;0.95;;;;;;;16.92;52.24;99931.72;10411183;28;20083;-48
2024/01/15 09:04:59;;;;;;;4.18;0.60;;;;;;;16.90;52.37;99923.22;10410550;28;20056;-50
2024/01/15 09:09:59;;;;;;;4.43;0.98;;;;;;;16.88;53.37;99922.72;10420375;28;20144;-51
2024/01/15 09:14:59;;;;;;;2.70;0.82;;;;;;;16.85;52.64;99937.50;10414322;28;20737;-50
2024/01/15 09:20:00;;;;;;;4.90;1.10;;;;;;;16.90;51.86;99933.91;10410484;28;20033;-49
2024/01/15 09:25:01;;;;;;;3.58;0.80;;;;;;;16.87;53.80;99929.97;10410316;28;20091;-50
2024/01/15 09:30:02;;;;;;;6.15;1.00;;;;;;;16.89;52.79;99926.97;10417936;28;20024;-48
2024/01/15 09:35:03;;;;;;;3.92;0.80;;;;;;;16.90;53.33;99934.72;10409542;28;20036;-49
2024/01/15 09:40:06;;;;;;;6.82;1.30;;;;;;;16.93;52.22;99950.19;10409466;28;20024;-47
2024/01/15 09:45:07;;;;;;;6.85;1.15;;;;;;;16.85;52.49;99937.50;10407721;28;20028;-50
2024/01/15 09:50:08;;;;;;;4.38;0.60;;;;;;;16.86;51.89;99911.53;10407854;28;20036;-48
2024/01/15 09:55:09;;;;;;;3.25;1.02;;;;;;;16.82;53.67;99922.06;10408652;28;20017;-49
2024/01/15 10:00:10;;;;;;;3.17;0.63;;;;;;;16.85;53.11;99920.66;10409060;28;20025;-50
2024/01/15 10:05:11;;;;;;;4.80;1.13;;;;;;;16.86;54.08;99930.28;10408277;28;20026;-51
2024/01/15 10:10:11;;;;;;;10.05;1.65;;;;;;;16.89;54.20;99935.81;10418849;28;20492;-50
2024/01/15 10:15:12;;;;;;;5.15;0.93;;;;;;;16.85;53.70;99942.06;10416170;28;20033;-53
2024/01/15 10:20:12;;;;;;;6.88;1.33;;;;;;;16.77;53.86;99932.88;10408243;28;20018;-50
2024/01/15 10:25:13;;;;;;;5.30;1.00;;;;;;;16.74;52.89;99930.00;10407851;28;20024;-51
2024/01/15 10:30:14;;;;;;;5.40;1.30;;;;;;;16.70;52.58;99932.50;10418785;28;20066;-53
2024/01/15 10:35:14;;;;;;;5.40;1.33;;;;;;;16.70;53.91;99929.84;10448585;28;20025;-51
2024/01/15 10:40:15;;;;;;;6.63;1.17;;;;;;;16.72;52.68;99916.94;10444810;28;20435;-50
2024/01/15 10:45:15;;;;;;;7.13;0.97;;;;;;;16.69;52.60;99925.53;10407264;28;20280;-51
2024/01/15 10:50:16;;;;;;;4.13;0.73;;;;;;;16.69;52.91;99930.91;10407871;28;20365;-51
2024/01/15 10:55:17;;;;;;;4.53;1.10;;;;;;;16.62;53.49;99943.88;10407068;28;20367;-50
2024/01/15 11:00:17;;;;;;;3.50;1.15;;;;;;;16.56;53.94;99939.72;10421256;28;20018;-49
2024/01/15 11:05:21;;;;;;;10.98;1.30;;;;;;;16.57;54.26;99920.69;10407012;28;20025;-48
2024/01/15 11:10:41;;;;;;;8.70;1.00;;;;;;;16.63;53.75;99929.41;10425368;28;20069;-48
2024/01/15 11:15:57;;;;;;;;;;;;;;;16.65;53.39;99935.25;10448441;28;20391;-50
2024/01/15 11:21:07;;;;;;;3.55;0.90;;;;;;;16.65;54.32;99943.28;10448826;28;19912;-48
2024/01/15 11:26:41;;;;;;;4.72;1.17;;;;;;;16.68;54.58;99942.69;10447502;28;20028;-49
2024/01/15 11:31:41;;;;;;;5.63;1.63;;;;;;;16.76;54.41;99950.03;10438612;28;20033;-51
2024/01/15 11:36:48;;;;;;;5.50;0.93;;;;;;;16.71;56.04;99944.81;10406249;28;20546;-46
2024/01/15 11:41:48;;;;;;;7.10;0.85;;;;;;;16.76;55.04;99952.72;10410601;28;20056;-49
2024/01/15 11:47:00;;;;;;;4.50;1.13;;;;;;;16.70;55.52;99940.53;10412339;28;20109;-49
2024/01/15 11:52:01;;;;;;;9.05;1.13;;;;;;;16.71;55.30;99938.66;10413594;28;20108;-47
2024/01/15 11:57:04;;;;;;;8.18;1.10;;;;;;;16.70;55.55;99937.88;10413594;28;20414;-50
2024/01/15 12:02:05;;;;;;;15.57;2.53;;;;;;;16.72;56.01;99942.91;10431905;28;20433;-48
2024/01/15 12:07:05;;;;;;;11.48;1.60;;;;;;;16.71;54.79;99947.47;10433781;28;20052;-48
2024/01/15 12:12:12;;;;;;;10.63;1.97;;;;;;;16.75;54.01;99953.00;10389769;28;20041;-53
2024/01/15 12:17:12;;;;;;;13.07;2.30;;;;;;;16.72;54.97;99957.09;10387034;28;20810;-50
2024/01/15 12:22:12;;;;;;;6.18;1.00;;;;;;;16.69;53.31;99965.69;10405344;28;20021;-49
2024/01/15 12:27:13;;;;;;;9.13;2.33;;;;;;;16.69;53.87;99963.03;10406147;28;20388;-51
2024/01/15 12:32:13;;;;;;;6.05;1.63;;;;;;;16.69;55.67;99965.69;10404779;28;20442;-47
2024/01/15 12:37:14;;;;;;;9.13;1.60;;;;;;;16.73;55.83;99981.97;10397661;28;20111;-47
2024/01/15 12:42:16;;;;;;;7.78;2.05;;;;;;;16.77;53.50;99988.28;10377391;28;20280;-47
2024/01/15 12:47:18;;;;;;;5.55;1.10;;;;;;;16.80;55.30;99995.72;10381459;28;20032;-51
2024/01/15 12:52:19;;;;;;;5.05;1.30;;;;;;;16.79;53.86;100004.84;10401612;28;20556;-52
2024/01/15 12:57:20;;;;;;;7.80;1.63;;;;;;;16.82;54.15;99986.31;10403696;28;20113;-52
2024/01/15 13:02:20;;;;;;;5.22;1.02;;;;;;;16.83;54.51;100009.31;10398675;28;20022;-51
2024/01/15 13:07:21;;;;;;;7.28;1.05;;;;;;;16.79;54.54;100018.22;10390128;28;20103;-50
2024/01/15 13:12:22;;;;;;;7.33;1.63;;;;;;;16.81;53.81;100019.53;10439630;28;20028;-50
2024/01/15 13:17:22;;;;;;;4.80;1.30;;;;;;;16.81;53.43;100006.16;10448705;28;20284;-50
2024/01/15 13:22:24;;;;;;;7.80;2.33;;;;;;;16.93;55.47;100005.63;10410397;28;20036;-52
2024/01/15 13:27:24;;;;;;;8.70;1.88;;;;;;;17.06;55.10;100006.69;10410045;28;20047;-50
2024/01/15 13:32:27;;;;;;;7.30;1.75;;;;;;;17.08;56.28;99991.91;10418571;28;20041;-50
2024/01/15 13:37:28;;;;;;;5.00;1.98;;;;;;;17.03;55.43;100016.09;10409496;28;20037;-51
2024/01/15 13:42:28;;;;;;;6.80;1.23;;;;;;;17.01;54.33;100014.81;10409662;28;20649;-53
2024/01/15 13:47:28;;;;;;;21.15;2.95;;;;;;;16.90;55.87;100020.41;10409130;28;20267;-51
2024/01/15 13:52:29;;;;;;;15.97;3.03;;;;;;;16.83;55.56;100022.72;10409390;28;20040;-52
2024/01/15 13:57:29;;;;;;;15.13;2.10;;;;;;;16.85;55.11;100017.84;10408812;28;20283;-51
2024/01/15 14:02:29;;;;;;;20.80;4.50;;;;;;;16.90;56.10;100020.41;10418189;28;20282;-49
2024/01/15 14:07:29;;;;;;;24.53;3.97;;;;;;;16.86;55.53;100032.81;10425836;28;20651;-52
2024/01/15 14:12:30;;;;;;;19.45;4.18;;;;;;;16.94;54.50;100050.06;10422769;28;20299;-49
2024/01/15 14:17:30;;;;;;;14.70;2.43;;;;;;;16.98;54.84;100067.09;10433512;28;20488;-51
2024/01/15 14:22:30;;;;;;;23.17;4.97;;;;;;;16.93;54.64;100073.38;10448034;28;20329;-52
2024/01/15 14:27:32;;;;;;;12.07;2.72;;;;;;;16.92;55.61;100076.31;10448925;28;20348;-51
2024/01/15 14:32:32;;;;;;;18.58;3.08;;;;;;;16.94;54.60;100064.25;10432551;28;20370;-52
2024/01/15 14:37:33;;;;;;;22.70;4.10;;;;;;;16.88;55.90;100070.78;10407730;28;20022;-50
2024/01/15 14:42:34;;;;;;;12.00;2.20;;;;;;;16.87;56.07;100087.94;10407809;28;20279;-50
2024/01/15 14:47:35;;;;;;;8.85;2.50;;;;;;;16.98;56.30;100093.88;10407523;28;20337;-52
2024/01/15 14:52:36;;;;;;;15.18;2.53;;;;;;;16.99;55.39;100097.34;10407802;28;20025;-51
2024/01/15 14:57:37;;;;;;;11.93;2.90;;;;;;;17.04;54.90;100108.75;10406868;28;20469;-51
2024/01/15 15:02:37;;;;;;;27.65;4.35;;;;;;;16.90;56.07;100116.00;10407519;28;20032;-54
2024/01/15 15:07:38;;;;;;;14.10;2.45;;;;;;;16.86;55.83;100113.13;10406938;28;20148;-52
2024/01/15 15:12:38;;;;;;;18.88;3.65;;;;;;;16.95;53.87;100126.63;10438122;28;20029;-52
2024/01/15 15:17:39;;;;;;;13.75;2.22;;;;;;;17.01;54.43;100125.41;10453338;28;20033;-52
2024/01/15 15:22:39;;;;;;;16.35;3.78;;;;;;;16.97;53.83;100124.44;10456432;28;20025;-51
2024/01/15 15:27:39;;;;;;;14.80;2.53;;;;;;;16.87;54.83;100133.47;10455803;28;20024;-53
2024/01/15 15:32:40;;;;;;;11.00;2.60;;;;;;;16.90;54.03;100132.84;10451742;28;20296;-52
2024/01/15 15:37:40;;;;;;;19.93;2.37;;;;;;;16.85;53.79;100121.47;10413942;28;20295;-53
2024/01/15 15:42:40;;;;;;;15.85;2.30;;;;;;;16.83;53.43;100137.84;10418236;28;20278;-52
2024/01/15 15:47:41;;;;;;;18.57;2.57;;;;;;;16.89;53.57;100138.50;10429265;28;20404;-49
2024/01/15 15:52:41;;;;;;;17.05;2.92;;;;;;;16.84;54.36;100147.44;10445596;28;20291;-53
2024/01/15 15:57:41;;;;;;;22.17;2.67;;;;;;;16.83;54.15;100151.22;10427818;28;20021;-49
2024/01/15 16:02:42;;;;;;;14.68;2.40;;;;;;;16.80;54.17;100167.06;10450112;28;20969;-52
2024/01/15 16:07:42;;;;;;;97.00;43.03;;;;;;;16.87;59.26;100175.50;10431018;28;20044;-50
2024/01/15 16:12:44;;;;;;;22.88;7.78;;;;;;;16.85;54.72;100173.13;10414382;28;20284;-53
2024/01/15 16:17:46;;;;;;;33.50;14.07;;;;;;;16.93;56.62;100195.75;10400683;28;20080;-47
2024/01/15 16:22:46;;;;;;;23.85;9.55;;;;;;;16.95;54.08;100199.72;10419505;28;20029;-52
2024/01/15 16:27:47;;;;;;;56.35;26.08;;;;;;;17.16;57.59;100210.03;10439358;28;20037;-54
2024/01/15 16:32:48;;;;;;;38.55;17.35;;;;;;;17.31;60.00;100206.28;10431451;28;20380;-45
2024/01/15 16:37:49;;;;;;;27.30;11.57;;;;;;;17.38;57.71;100212.00;10409144;28;20030;-45
2024/01/15 16:42:49;;;;;;;20.55;9.15;;;;;;;17.40;55.11;100215.19;10409274;28;20025;-47
2024/01/15 16:47:50;;;;;;;13.17;7.27;;;;;;;17.39;55.05;100240.41;10408460;28;20037;-47
2024/01/15 16:52:51;;;;;;;14.23;7.57;;;;;;;17.65;54.51;100246.84;10408790;28;20292;-47
2024/01/15 16:57:51;;;;;;;20.33;7.50;;;;;;;17.58;54.08;100245.66;10408438;28;20029;-47
2024/01/15 17:02:51;;;;;;;16.30;7.00;;;;;;;17.61;54.44;100248.50;10408411;28;20268;-48
2024/01/15 17:07:52;;;;;;;21.33;6.95;;;;;;;17.48;53.59;100252.81;10424042;28;20044;-45
2024/01/15 17:12:52;;;;;;;16.90;6.57;;;;;;;17.47;54.39;100258.47;10417320;28;20389;-46
2024/01/15 17:17:52;;;;;;;18.27;7.10;;;;;;;17.54;55.15;100269.59;10408262;28;20276;-46
2024/01/15 17:22:53;;;;;;;15.63;6.53;;;;;;;17.60;55.66;100272.94;10421509;28;20655;-47
2024/01/15 17:27:53;;;;;;;19.00;6.33;;;;;;;17.53;53.41;100262.66;10409323;28;20276;-58
2024/01/15 17:32:53;;;;;;;15.25;5.85;;;;;;;17.42;54.75;100280.03;10418064;28;20341;-56
2024/01/15 17:37:54;;;;;;;17.38;6.25;;;;;;;17.41;53.70;100289.94;10411038;28;20030;-54
2024/01/15 17:42:54;;;;;;;15.60;5.03;;;;;;;17.34;54.58;100294.09;10410353;28;20105;-55
2024/01/15 17:47:54;;;;;;;17.07;5.53;;;;;;;17.20;54.94;100304.81;10408096;28;20351;-57
2024/01/15 17:52:57;;;;;;;19.63;5.60;;;;;;;17.11;53.63;100315.41;10408906;28;20374;-57
2024/01/15 17:57:57;;;;;;;16.83;4.28;;;;;;;17.07;54.72;100319.78;10410125;28;20291;-55
2024/01/15 18:02:57;;;;;;;13.43;4.37;;;;;;;16.99;53.70;100325.78;10445207;28;20025;-56
2024/01/15 18:07:58;;;;;;;10.67;5.10;;;;;;;17.05;54.18;100331.84;10451023;28;20996;-55
2024/01/15 18:12:59;;;;;;;11.25;4.35;;;;;;;17.11;53.25;100331.47;10413085;28;20291;-55
2024/01/15 18:18:00;;;;;;;13.43;4.28;;;;;;;17.04;53.16;100331.06;10423037;28;20029;-54
2024/01/15 18:23:00;;;;;;;16.33;4.67;;;;;;;17.09;52.63;100322.16;10438764;28;20024;-52
2024/01/15 18:28:00;;;;;;;12.70;4.27;;;;;;;17.04;53.55;100333.72;10447715;28;20283;-53
2024/01/15 18:33:01;;;;;;;14.27;3.60;;;;;;;17.08;53.50;100342.78;10428932;28;20337;-52
2024/01/15 18:38:01;;;;;;;10.55;3.83;;;;;;;17.09;53.76;100355.09;10408541;28;20770;-54
2024/01/15 18:43:01;;;;;;;12.07;4.70;;;;;;;17.13;52.15;100382.88;10408639;28;20037;-53
2024/01/15 18:48:02;;;;;;;9.75;3.40;;;;;;;17.12;52.84;100400.03;10408754;28;20679;-53
2024/01/15 18:53:02;;;;;;;8.55;3.10;;;;;;;17.15;52.56;100409.38;10425215;28;20018;-54
2024/01/15 18:58:03;;;;;;;13.10;5.10;;;;;;;17.15;52.39;100398.66;10431183;28;20388;-54
2024/01/15 19:03:04;;;;;;;5.60;3.05;;;;;;;17.14;53.56;100395.19;10434265;28;20021;-52
2024/01/15 19:08:04;;;;;;;7.32;3.97;;;;;;;17.18;52.67;100403.44;10432285;28;20049;-51
2024/01/15 19:13:06;;;;;;;9.27;3.03;;;;;;;17.24;52.00;100412.97;10424584;28;20057;-54
2024/01/15 19:18:06;;;;;;;8.13;3.90;;;;;;;17.42;51.01;100416.72;10416702;28;20307;-52
2024/01/15 19:23:08;;;;;;;7.38;2.75;;;;;;;17.45;51.16;100419.59;10426301;28;20035;-54
2024/01/15 19:28:08;;;;;;;7.68;2.33;;;;;;;17.53;51.38;100408.19;10430420;28;20087;-52
2024/01/15 19:33:08;;;;;;;5.83;2.30;;;;;;;17.61;50.88;100417.41;10432647;28;20128;-53
2024/01/15 19:38:09;;;;;;;8.40;2.45;;;;;;;17.62;51.39;100418.22;10431306;28;20812;-53
2024/01/15 19:43:10;;;;;;;11.02;3.20;;;;;;;17.60;51.37;100415.03;10433170;28;20032;-51
2024/01/15 19:48:11;;;;;;;9.48;3.30;;;;;;;17.48;52.22;100423.56;10428919;28;20061;-53
2024/01/15 19:53:12;;;;;;;4.13;2.15;;;;;;;17.59;50.46;100442.94;10455833;28;20025;-54
2024/01/15 19:58:13;;;;;;;11.23;2.60;;;;;;;17.60;51.09;100449.88;10449208;28;20037;-51
2024/01/15 20:03:14;;;;;;;7.78;2.50;;;;;;;17.66;51.44;100444.16;10427796;28;20271;-49
2024/01/15 20:08:14;;;;;;;5.57;2.53;;;;;;;17.71;51.21;100451.34;10429543;28;20045;-53
2024/01/15 20:13:15;;;;;;;5.93;2.10;;;;;;;17.68;50.95;100457.25;10447145;28;20021;-55
2024/01/15 20:18:15;;;;;;;3.83;2.20;;;;;;;17.60;50.48;100450.69;10452192;28;20283;-53
2024/01/15 20:23:15;;;;;;;5.40;2.70;;;;;;;17.53;51.75;100487.81;10443072;28;20272;-54
2024/01/15 20:28:16;;;;;;;5.47;2.63;;;;;;;17.52;51.63;100475.47;10445691;28;20285;-54
2024/01/15 20:33:18;;;;;;;5.13;2.37;;;;;;;17.49;51.00;100474.19;10432816;28;20290;-55
2024/01/15 20:38:19;;;;;;;10.50;2.20;;;;;;;17.58;51.47;100476.19;10430325;28;20268;-53
2024/01/15 20:43:19;;;;;;;8.88;2.10;;;;;;;17.57;50.00;100490.69;10412980;28;20025;-54
2024/01/15 20:48:22;;;;;;;5.43;2.10;;;;;;;17.60;50.91;100487.41;10413032;28;20464;-54
2024/01/15 20:53:22;;;;;;;4.90;1.98;;;;;;;17.60;50.18;100480.16;10412243;28;20341;-53
2024/01/15 20:58:23;;;;;;;3.58;1.60;;;;;;;17.61;50.43;100486.31;10418698;28;20025;-54
2024/01/15 21:03:23;;;;;;;7.95;2.03;;;;;;;17.62;49.91;100493.28;10418475;28;20014;-55
2024/01/15 21:08:24;;;;;;;3.40;1.67;;;;;;;17.59;49.26;100502.72;10411856;28;20840;-55
2024/01/15 21:13:24;;;;;;;4.38;1.88;;;;;;;17.60;49.47;100495.47;10448350;28;20048;-55
2024/01/15 21:18:24;;;;;;;5.10;1.80;;;;;;;17.62;49.31;100509.38;10451909;28;20037;-55
2024/01/15 21:23:25;;;;;;;4.13;1.90;;;;;;;17.64;49.63;100510.69;10450625;28;20281;-54
2024/01/15 21:28:25;;;;;;;3.47;1.20;;;;;;;17.70;48.90;100511.41;10452135;28;20037;-55
2024/01/15 21:33:30;;;;;;;3.20;1.45;;;;;;;17.67;49.84;100515.47;10427240;28;20295;-55
2024/01/15 21:38:31;;;;;;;3.80;1.60;;;;;;;17.75;49.22;100514.00;10411057;28;20040;-54
2024/01/15 21:43:31;;;;;;;2.42;1.27;;;;;;;17.82;48.16;100515.22;10409146;28;20056;-55
2024/01/15 21:48:31;;;;;;;2.33;1.00;;;;;;;17.83;48.82;100516.81;10410624;28;20067;-55
2024/01/15 21:53:32;;;;;;;4.07;1.17;;;;;;;17.78;48.90;100521.47;10409857;28;20063;-55
2024/01/15 21:58:32;;;;;;;3.78;1.70;;;;;;;17.73;49.08;100529.59;10410075;28;20280;-55
2024/01/15 22:03:33;;;;;;;2.92;1.05;;;;;;;17.70;49.99;100530.97;10409829;28;20362;-55
2024/01/15 22:08:33;;;;;;;2.80;1.25;;;;;;;17.71;49.85;100543.28;10409913;28;20361;-53
2024/01/15 22:13:33;;;;;;;3.73;1.80;;;;;;;17.69;48.32;100532.06;10448086;28;20042;-56
2024/01/15 22:18:37;;;;;;;2.80;1.60;;;;;;;17.70;48.74;100543.59;10450693;28;20037;-55
2024/01/15 22:23:37;;;;;;;3.20;1.30;;;;;;;17.70;49.46;100546.28;10450099;28;20029;-53
2024/01/15 22:28:37;;;;;;;3.47;1.20;;;;;;;17.75;48.51;100546.19;10449347;28;20526;-54
2024/01/15 22:33:39;;;;;;;2.90;1.30;;;;;;;17.82;49.36;100560.81;10423550;28;20378;-53
2024/01/15 22:38:39;;;;;;;4.65;1.75;;;;;;;17.80;49.06;100564.88;10409329;28;20736;-53
2024/01/15 22:43:39;;;;;;;4.03;1.40;;;;;;;17.77;48.52;100578.88;10408736;28;20025;-54
2024/01/15 22:48:40;;;;;;;2.87;1.17;;;;;;;17.72;47.96;100582.44;10408743;28;20276;-54
2024/01/15 22:53:40;;;;;;;3.80;1.00;;;;;;;17.71;47.89;100577.34;10408463;28;20283;-54
2024/01/15 22:58:40;;;;;;;1.83;0.90;;;;;;;17.70;49.02;100589.19;10408579;28;20338;-52
2024/01/15 23:03:41;;;;;;;2.47;1.10;;;;;;;17.70;49.03;100594.53;10408302;28;20322;-54
2024/01/15 23:08:41;;;;;;;2.63;0.80;;;;;;;17.75;48.45;100594.44;10408333;28;20288;-55